sensor_id;sensor_type;location;lat;lon;timestamp;pressure;altitude;pressure_sealevel;temperature;humidity
80511;BME280;69840;53.040;8.600;2023-08-30T00:13:52;100860.53;;;14.14;87.55
80511;BME280;69840;53.040;8.600;2023-08-30T00:39:11;100856.06;;;14.14;87.05
80511;BME280;69840;53.040;8.600;2023-08-30T01:04:32;100847.97;;;14.08;86.85
80511;BME280;69840;53.040;8.600;2023-08-30T01:29:54;100827.25;;;14.03;86.97
80511;BME280;69840;53.040;8.600;2023-08-30T01:55:18;100831.66;;;14.11;87.07
80511;BME280;69840;53.040;8.600;2023-08-30T02:20:39;100820.53;;;14.22;86.45
80511;BME280;69840;53.040;8.600;2023-08-30T02:46:00;100818.00;;;14.14;86.62
80511;BME280;69840;53.040;8.600;2023-08-30T03:11:20;100815.09;;;13.94;86.75
80511;BME280;69840;53.040;8.600;2023-08-30T03:36:43;100799.72;;;13.75;87.00
80511;BME280;69840;53.040;8.600;2023-08-30T04:02:03;100790.38;;;13.79;87.99
80511;BME280;69840;53.040;8.600;2023-08-30T04:27:23;100786.16;;;13.84;88.08
80511;BME280;69840;53.040;8.600;2023-08-30T04:52:42;100756.94;;;13.69;87.70
80511;BME280;69840;53.040;8.600;2023-08-30T05:18:03;100740.44;;;13.74;88.16
80511;BME280;69840;53.040;8.600;2023-08-30T05:43:23;100724.31;;;13.76;88.05
80511;BME280;69840;53.040;8.600;2023-08-30T06:08:42;100724.56;;;14.17;87.91
80511;BME280;69840;53.040;8.600;2023-08-30T06:34:02;100702.00;;;14.70;86.76
80511;BME280;69840;53.040;8.600;2023-08-30T06:59:21;100699.53;;;15.31;84.56
80511;BME280;69840;53.040;8.600;2023-08-30T07:24:40;100700.47;;;15.99;80.65
80511;BME280;69840;53.040;8.600;2023-08-30T07:49:59;100711.03;;;16.53;74.77
80511;BME280;69840;53.040;8.600;2023-08-30T08:15:19;100697.81;;;17.37;70.11
80511;BME280;69840;53.040;8.600;2023-08-30T08:40:38;100691.63;;;18.33;63.25
80511;BME280;69840;53.040;8.600;2023-08-30T09:06:02;100681.69;;;18.71;60.50
80511;BME280;69840;53.040;8.600;2023-08-30T09:31:22;100673.09;;;19.24;58.37
80511;BME280;69840;53.040;8.600;2023-08-30T09:56:42;100665.72;;;20.04;54.54
80511;BME280;69840;53.040;8.600;2023-08-30T10:22:06;100651.72;;;21.02;51.72
80511;BME280;69840;53.040;8.600;2023-08-30T10:47:37;100632.34;;;20.77;55.44
80511;BME280;69840;53.040;8.600;2023-08-30T11:12:57;100611.19;;;21.55;53.66
80511;BME280;69840;53.040;8.600;2023-08-30T11:38:17;100576.91;;;19.94;61.85
80511;BME280;69840;53.040;8.600;2023-08-30T12:03:37;100569.38;;;20.14;60.60
80511;BME280;69840;53.040;8.600;2023-08-30T12:28:56;100536.09;;;19.92;60.69
80511;BME280;69840;53.040;8.600;2023-08-30T12:54:15;100537.88;;;18.90;68.45
80511;BME280;69840;53.040;8.600;2023-08-30T13:19:35;100529.41;;;18.32;75.43
80511;BME280;69840;53.040;8.600;2023-08-30T13:44:54;100524.44;;;18.35;76.29
80511;BME280;69840;53.040;8.600;2023-08-30T14:10:13;100532.88;;;17.89;79.66
80511;BME280;69840;53.040;8.600;2023-08-30T14:35:41;100528.69;;;16.86;82.02
80511;BME280;69840;53.040;8.600;2023-08-30T15:01:04;100524.03;;;16.74;85.47
80511;BME280;69840;53.040;8.600;2023-08-30T15:26:23;100506.47;;;17.36;82.53
80511;BME280;69840;53.040;8.600;2023-08-30T15:51:44;100492.53;;;17.66;80.14
80511;BME280;69840;53.040;8.600;2023-08-30T16:17:03;100487.44;;;17.26;80.62
80511;BME280;69840;53.040;8.600;2023-08-30T16:42:22;100457.00;;;16.96;83.46
80511;BME280;69840;53.040;8.600;2023-08-30T17:07:41;100472.75;;;16.66;83.62
80511;BME280;69840;53.040;8.600;2023-08-30T17:33:01;100470.56;;;16.30;86.35
80511;BME280;69840;53.040;8.600;2023-08-30T17:58:20;100461.16;;;16.14;87.01
80511;BME280;69840;53.040;8.600;2023-08-30T18:23:41;100493.75;;;15.96;87.21
80511;BME280;69840;53.040;8.600;2023-08-30T18:49:00;100529.00;;;14.98;84.64
80511;BME280;69840;53.040;8.600;2023-08-30T19:14:19;100549.16;;;14.72;86.17
80511;BME280;69840;53.040;8.600;2023-08-30T19:39:39;100564.03;;;14.39;86.66
80511;BME280;69840;53.040;8.600;2023-08-30T20:04:58;100586.41;;;14.23;87.80
80511;BME280;69840;53.040;8.600;2023-08-30T20:30:17;100581.34;;;14.28;88.23
80511;BME280;69840;53.040;8.600;2023-08-30T20:55:41;100591.06;;;14.15;88.39
80511;BME280;69840;53.040;8.600;2023-08-30T21:21:00;100596.88;;;14.03;89.48
80511;BME280;69840;53.040;8.600;2023-08-30T21:46:19;100607.56;;;13.89;90.38
80511;BME280;69840;53.040;8.600;2023-08-30T22:11:39;100628.47;;;13.92;89.27
80511;BME280;69840;53.040;8.600;2023-08-30T22:36:58;100619.44;;;13.72;89.52
80511;BME280;69840;53.040;8.600;2023-08-30T23:02:17;100639.84;;;13.50;89.41
80511;BME280;69840;53.040;8.600;2023-08-30T23:27:36;100631.28;;;13.18;88.92
80511;BME280;69840;53.040;8.600;2023-08-30T23:52:55;100631.88;;;12.91;88.88
